Time;durP1;ratioP1;P1;durP2;ratioP2;P2;SDS_P1;SDS_P2;PMS_P1;PMS_P2;Temp;Humidity;BMP_temperature;BMP_pressure;BME280_temperature;BME280_humidity;BME280_pressure;Samples;Min_cycle;Max_cycle;Signal;HPM_P1;HPM_P2
2022/03/21 00:02:19;;;;;;;21.42;14.95;;;;;;;;;;5072381;28;20383;-71
2022/03/21 00:04:45;;;;;;;21.00;14.43;;;;;;;;;;5090202;28;20126;-71
2022/03/21 00:07:11;;;;;;;22.80;14.07;;;;;;;;;;5089660;28;20165;-68
2022/03/21 00:09:37;;;;;;;16.25;13.25;;;;;;;;;;5089011;28;20151;-68
2022/03/21 00:12:04;;;;;;;20.13;13.95;;;;;;;;;;5089560;28;20120;-68
2022/03/21 00:14:30;;;;;;;16.60;13.65;;;;;;;;;;5089490;28;20048;-68
2022/03/21 00:16:57;;;;;;;16.73;12.90;;;;;;;;;;5088399;28;20055;-68
2022/03/21 00:19:23;;;;;;;17.42;12.93;;;;;;;;;;5089204;28;20048;-68
2022/03/21 00:21:49;;;;;;;17.02;13.13;;;;;;;;;;5089364;28;20054;-68
2022/03/21 00:24:15;;;;;;;16.45;13.30;;;;;;;;;;5071018;28;20043;-68
2022/03/21 00:26:41;;;;;;;15.57;12.98;;;;;;;;;;5088807;28;20048;-68
2022/03/21 00:29:08;;;;;;;16.83;14.05;;;;;;;;;;5089076;28;20051;-68
2022/03/21 00:31:36;;;;;;;17.90;14.48;;;;;;;;;;5088824;28;20075;-68
2022/03/21 00:34:02;;;;;;;16.70;13.30;;;;;;;;;;5088684;28;20124;-68
2022/03/21 00:36:28;;;;;;;18.80;14.18;;;;;;;;;;5088520;28;20067;-68
2022/03/21 00:38:55;;;;;;;19.02;14.00;;;;;;;;;;5088060;28;20455;-68
2022/03/21 00:41:22;;;;;;;16.35;12.85;;;;;;;;;;5089026;28;20139;-68
2022/03/21 00:43:48;;;;;;;17.50;13.40;;;;;;;;;;5088331;28;20089;-68
2022/03/21 00:46:14;;;;;;;17.08;12.52;;;;;;;;;;5088313;28;20103;-68
2022/03/21 00:48:40;;;;;;;17.17;11.93;;;;;;;;;;5088017;28;20386;-68
2022/03/21 00:51:06;;;;;;;18.70;13.30;;;;;;;;;;5088287;28;20036;-68
2022/03/21 00:53:32;;;;;;;18.08;13.52;;;;;;;;;;5088066;28;20547;-68
2022/03/21 00:55:58;;;;;;;20.10;12.77;;;;;;;;;;5087752;28;20058;-68
2022/03/21 00:58:24;;;;;;;16.35;12.63;;;;;;;;;;5087874;28;20079;-68
2022/03/21 01:00:50;;;;;;;15.98;12.65;;;;;;;;;;5088116;28;20443;-68
2022/03/21 01:03:16;;;;;;;14.13;12.43;;;;;;;;;;5087523;28;20127;-68
2022/03/21 01:05:43;;;;;;;15.95;12.80;;;;;;;;;;5087811;28;20091;-68
2022/03/21 01:08:09;;;;;;;19.70;13.82;;;;;;;;;;5087671;28;20044;-68
2022/03/21 01:10:35;;;;;;;17.02;12.77;;;;;;;;;;5087208;28;20126;-68
2022/03/21 01:13:01;;;;;;;16.00;12.43;;;;;;;;;;5087889;28;20587;-68
2022/03/21 01:15:28;;;;;;;17.30;12.73;;;;;;;;;;5087979;28;20772;-68
2022/03/21 01:17:54;;;;;;;17.20;12.75;;;;;;;;;;5087556;28;20567;-68
2022/03/21 01:20:21;;;;;;;15.38;12.02;;;;;;;;;;5087542;28;20119;-68
2022/03/21 01:22:47;;;;;;;15.50;12.45;;;;;;;;;;5087500;28;20434;-68
2022/03/21 01:25:14;;;;;;;15.50;12.82;;;;;;;;;;5087521;28;20048;-68
2022/03/21 01:27:41;;;;;;;17.63;12.52;;;;;;;;;;5087640;28;20101;-68
2022/03/21 01:30:08;;;;;;;15.45;12.43;;;;;;;;;;5087798;28;20055;-68
2022/03/21 01:32:34;;;;;;;16.08;12.70;;;;;;;;;;5087173;28;20040;-68
2022/03/21 01:35:01;;;;;;;15.07;12.40;;;;;;;;;;5065969;28;20468;-68
2022/03/21 01:37:27;;;;;;;14.65;12.02;;;;;;;;;;5066427;28;20430;-69
2022/03/21 01:39:53;;;;;;;15.65;12.75;;;;;;;;;;5066194;28;20044;-68
2022/03/21 01:42:19;;;;;;;14.43;12.20;;;;;;;;;;5050002;28;20072;-68
2022/03/21 01:44:45;;;;;;;16.23;12.60;;;;;;;;;;5067151;28;20136;-68
2022/03/21 01:47:11;;;;;;;16.88;12.60;;;;;;;;;;5067726;28;20459;-68
2022/03/21 01:49:38;;;;;;;15.15;12.15;;;;;;;;;;5066054;28;20037;-68
2022/03/21 01:52:04;;;;;;;14.27;12.23;;;;;;;;;;5067903;28;20044;-68
2022/03/21 01:57:15;;;;;;;14.02;11.75;;;;;;;;;;5066059;28;20076;-68
2022/03/21 01:59:41;;;;;;;14.85;11.10;;;;;;;;;;5067588;28;20075;-69
2022/03/21 02:02:07;;;;;;;13.82;11.57;;;;;;;;;;5067912;28;20399;-68
2022/03/21 02:04:34;;;;;;;15.55;12.38;;;;;;;;;;5066501;28;20080;-69
2022/03/21 02:07:01;;;;;;;17.25;13.07;;;;;;;;;;5067691;28;20052;-68
2022/03/21 02:09:28;;;;;;;14.82;12.10;;;;;;;;;;5067277;28;20052;-69
2022/03/21 02:11:55;;;;;;;15.55;11.85;;;;;;;;;;5067469;28;20418;-69
2022/03/21 02:14:21;;;;;;;17.00;11.52;;;;;;;;;;5067978;28;20045;-71
2022/03/21 02:16:47;;;;;;;16.00;12.07;;;;;;;;;;5068167;28;20041;-70
2022/03/21 02:19:13;;;;;;;14.82;11.10;;;;;;;;;;5049306;28;20140;-68
2022/03/21 02:21:55;;;;;;;15.68;10.88;;;;;;;;;;5067478;28;20154;-68
2022/03/21 02:24:25;;;;;;;17.23;10.43;;;;;;;;;;5067749;28;20433;-68
2022/03/21 02:26:52;;;;;;;18.00;10.95;;;;;;;;;;5067387;28;20045;-69
2022/03/21 02:29:19;;;;;;;13.80;10.43;;;;;;;;;;5066811;28;20347;-68
2022/03/21 02:31:46;;;;;;;16.15;11.02;;;;;;;;;;5067510;28;20044;-68
2022/03/21 02:34:12;;;;;;;15.45;10.65;;;;;;;;;;5076922;28;20533;-68
2022/03/21 02:36:38;;;;;;;16.58;10.60;;;;;;;;;;5069492;28;20056;-68
2022/03/21 02:39:05;;;;;;;14.95;10.73;;;;;;;;;;5088121;28;20391;-68
2022/03/21 02:41:31;;;;;;;14.95;10.25;;;;;;;;;;5090325;28;20060;-69
2022/03/21 02:43:58;;;;;;;12.15;10.68;;;;;;;;;;5090930;28;20421;-68
2022/03/21 02:46:24;;;;;;;20.52;10.93;;;;;;;;;;5090678;28;20513;-68
2022/03/21 02:48:51;;;;;;;13.20;10.35;;;;;;;;;;5090965;28;20527;-69
2022/03/21 02:51:20;;;;;;;13.85;10.00;;;;;;;;;;5091135;28;20414;-69
2022/03/21 02:53:47;;;;;;;12.60;10.20;;;;;;;;;;5072692;28;20370;-68
2022/03/21 02:56:13;;;;;;;12.43;9.30;;;;;;;;;;5091251;28;20043;-69
2022/03/21 02:58:39;;;;;;;12.55;9.65;;;;;;;;;;5090454;28;20044;-69
2022/03/21 03:01:13;;;;;;;14.75;9.60;;;;;;;;;;5090781;28;20046;-69
2022/03/21 03:03:42;;;;;;;12.57;9.55;;;;;;;;;;5090564;28;20519;-68
2022/03/21 03:06:09;;;;;;;13.50;9.95;;;;;;;;;;5055176;28;20076;-68
2022/03/21 03:08:35;;;;;;;11.68;9.70;;;;;;;;;;5090910;28;20462;-69
2022/03/21 03:11:02;;;;;;;11.93;9.80;;;;;;;;;;5090779;28;20171;-69
2022/03/21 03:13:28;;;;;;;12.43;8.80;;;;;;;;;;5090850;28;20048;-67
2022/03/21 03:15:54;;;;;;;13.35;10.07;;;;;;;;;;5089940;28;20047;-68
2022/03/21 03:18:20;;;;;;;13.77;9.85;;;;;;;;;;5090400;28;20071;-68
2022/03/21 03:20:50;;;;;;;16.17;10.23;;;;;;;;;;5089977;28;20130;-68
2022/03/21 03:23:19;;;;;;;12.07;9.55;;;;;;;;;;5090372;28;20040;-68
2022/03/21 03:25:45;;;;;;;11.93;9.48;;;;;;;;;;5090140;28;20597;-68
2022/03/21 03:28:12;;;;;;;10.95;8.70;;;;;;;;;;5089602;28;20082;-68
2022/03/21 03:30:38;;;;;;;11.38;9.13;;;;;;;;;;5090029;28;20119;-68
2022/03/21 03:33:04;;;;;;;11.80;9.10;;;;;;;;;;5090434;28;20411;-68
2022/03/21 03:35:30;;;;;;;11.68;8.75;;;;;;;;;;5090185;28;20113;-68
2022/03/21 03:37:56;;;;;;;11.73;8.93;;;;;;;;;;5090036;28;20048;-68
2022/03/21 03:40:22;;;;;;;12.52;9.43;;;;;;;;;;5089795;28;20048;-68
2022/03/21 03:42:48;;;;;;;11.65;8.80;;;;;;;;;;5090093;28;20587;-68
2022/03/21 03:45:14;;;;;;;11.85;9.55;;;;;;;;;;5090087;28;20531;-69
2022/03/21 03:47:41;;;;;;;11.82;9.20;;;;;;;;;;5089808;28;20162;-69
2022/03/21 03:50:08;;;;;;;16.30;9.18;;;;;;;;;;5071433;28;20412;-70
2022/03/21 03:52:34;;;;;;;10.60;8.57;;;;;;;;;;5088452;28;20070;-70
2022/03/21 03:55:00;;;;;;;12.98;8.95;;;;;;;;;;5089856;28;20439;-69
2022/03/21 03:57:26;;;;;;;11.57;8.70;;;;;;;;;;5089758;28;20048;-69
2022/03/21 03:59:52;;;;;;;12.15;9.13;;;;;;;;;;5089146;28;20075;-69
2022/03/21 04:02:18;;;;;;;11.13;8.40;;;;;;;;;;5071232;28;20476;-69
2022/03/21 04:04:45;;;;;;;10.25;8.52;;;;;;;;;;5088267;28;20123;-69
2022/03/21 04:07:11;;;;;;;11.45;8.82;;;;;;;;;;5071461;28;20097;-69
2022/03/21 04:09:37;;;;;;;13.15;8.50;;;;;;;;;;5089452;28;20536;-69
2022/03/21 04:12:03;;;;;;;12.13;9.25;;;;;;;;;;5089077;28;20040;-69
2022/03/21 04:14:30;;;;;;;10.40;7.95;;;;;;;;;;5089395;28;20101;-69
2022/03/21 04:16:56;;;;;;;11.65;9.05;;;;;;;;;;5088479;28;20048;-69
2022/03/21 04:19:22;;;;;;;10.57;8.40;;;;;;;;;;5089521;28;20043;-69
2022/03/21 04:21:49;;;;;;;11.48;8.73;;;;;;;;;;5089744;28;20538;-68
2022/03/21 04:24:15;;;;;;;10.27;8.55;;;;;;;;;;5089353;28;20788;-68
2022/03/21 04:26:41;;;;;;;11.95;8.60;;;;;;;;;;5089024;28;20040;-68
2022/03/21 04:29:07;;;;;;;13.05;8.98;;;;;;;;;;5070855;28;20047;-71
2022/03/21 04:31:33;;;;;;;13.18;7.57;;;;;;;;;;5089592;28;20387;-68
2022/03/21 04:34:00;;;;;;;12.63;8.13;;;;;;;;;;5088757;28;20055;-68
2022/03/21 04:36:27;;;;;;;10.07;7.60;;;;;;;;;;5089019;28;20448;-69
2022/03/21 04:38:53;;;;;;;15.73;7.45;;;;;;;;;;5070620;28;20162;-68
2022/03/21 04:41:20;;;;;;;13.43;7.32;;;;;;;;;;5089328;28;20135;-69
2022/03/21 04:43:46;;;;;;;10.43;7.38;;;;;;;;;;5088875;28;20048;-69
2022/03/21 04:46:12;;;;;;;14.18;7.38;;;;;;;;;;5089123;28;20089;-69
2022/03/21 04:48:38;;;;;;;9.55;7.35;;;;;;;;;;5088310;28;20464;-69
2022/03/21 04:51:04;;;;;;;10.77;7.45;;;;;;;;;;5087637;28;20048;-69
2022/03/21 04:53:30;;;;;;;8.57;7.07;;;;;;;;;;5088802;28;20094;-70
2022/03/21 04:55:56;;;;;;;9.40;7.22;;;;;;;;;;5088614;28;20051;-69
2022/03/21 04:58:22;;;;;;;10.50;7.60;;;;;;;;;;5087302;28;20127;-69
2022/03/21 05:00:49;;;;;;;10.43;7.50;;;;;;;;;;5069729;28;20048;-69
2022/03/21 05:03:15;;;;;;;10.00;7.38;;;;;;;;;;5088390;28;20056;-68
2022/03/21 05:05:41;;;;;;;9.77;7.57;;;;;;;;;;5088108;28;20056;-69
2022/03/21 05:08:07;;;;;;;10.57;7.43;;;;;;;;;;5089126;28;20054;-69
2022/03/21 05:10:34;;;;;;;10.38;7.47;;;;;;;;;;5088803;28;20498;-69
2022/03/21 05:13:01;;;;;;;10.73;8.15;;;;;;;;;;5088208;28;20036;-69
2022/03/21 05:15:27;;;;;;;11.02;7.38;;;;;;;;;;5088611;28;20048;-68
2022/03/21 05:17:53;;;;;;;10.35;7.53;;;;;;;;;;5053782;28;20116;-69
2022/03/21 05:20:19;;;;;;;10.05;7.20;;;;;;;;;;5087797;28;20522;-68
2022/03/21 05:31:02;;;;;;;10.70;6.90;;;;;;;;;;5088393;28;20052;-69
2022/03/21 05:36:13;;;;;;;9.60;7.57;;;;;;;;;;5088236;28;20051;-69
2022/03/21 05:38:39;;;;;;;9.82;7.20;;;;;;;;;;5088451;28;20082;-68
2022/03/21 05:41:05;;;;;;;11.18;7.68;;;;;;;;;;5069438;28;20040;-68
2022/03/21 05:43:32;;;;;;;9.30;6.97;;;;;;;;;;5088432;28;20086;-68
2022/03/21 05:46:03;;;;;;;10.10;7.22;;;;;;;;;;5053089;28;20044;-68
2022/03/21 05:51:15;;;;;;;9.98;6.82;;;;;;;;;;5068557;28;20439;-68
2022/03/21 05:53:41;;;;;;;9.98;6.95;;;;;;;;;;5067541;28;20059;-68
2022/03/21 05:56:07;;;;;;;9.80;7.28;;;;;;;;;;5067803;28;20041;-68
2022/03/21 05:58:34;;;;;;;10.15;7.07;;;;;;;;;;5082503;28;20474;-68
2022/03/21 06:01:00;;;;;;;10.23;6.82;;;;;;;;;;5088298;28;20048;-68
2022/03/21 06:03:26;;;;;;;11.07;7.20;;;;;;;;;;5088366;28;20044;-68
2022/03/21 06:05:55;;;;;;;9.48;7.40;;;;;;;;;;5070089;28;20063;-68
2022/03/21 06:08:21;;;;;;;9.20;7.07;;;;;;;;;;5087788;28;20040;-68
2022/03/21 06:10:47;;;;;;;10.25;6.78;;;;;;;;;;5087807;28;20436;-69
2022/03/21 06:13:14;;;;;;;9.05;6.70;;;;;;;;;;5070217;28;20044;-68
2022/03/21 06:15:40;;;;;;;9.93;7.70;;;;;;;;;;5091201;28;20422;-68
2022/03/21 06:18:15;;;;;;;10.10;7.70;;;;;;;;;;5091945;28;20646;-68
2022/03/21 06:20:42;;;;;;;9.55;6.75;;;;;;;;;;5091363;28;20040;-68
2022/03/21 06:23:09;;;;;;;8.38;6.47;;;;;;;;;;5057030;28;20190;-68
2022/03/21 06:25:36;;;;;;;10.32;7.30;;;;;;;;;;5057374;28;20056;-68
2022/03/21 06:28:02;;;;;;;9.50;7.03;;;;;;;;;;5092122;28;20090;-70
2022/03/21 06:30:29;;;;;;;10.18;6.80;;;;;;;;;;5073402;28;20052;-66
2022/03/21 06:32:55;;;;;;;12.18;6.53;;;;;;;;;;5090713;28;20437;-67
2022/03/21 06:35:21;;;;;;;9.95;6.85;;;;;;;;;;5091419;28;20402;-68
2022/03/21 06:37:47;;;;;;;16.38;7.18;;;;;;;;;;5090719;28;20040;-68
2022/03/21 06:40:14;;;;;;;11.50;7.03;;;;;;;;;;5072682;28;20181;-68
2022/03/21 06:42:40;;;;;;;9.70;6.60;;;;;;;;;;5090034;28;20468;-68
2022/03/21 06:45:06;;;;;;;10.82;6.50;;;;;;;;;;5090606;28;20047;-68
2022/03/21 06:47:32;;;;;;;11.00;7.43;;;;;;;;;;5090705;28;20044;-67
2022/03/21 06:49:58;;;;;;;12.43;7.18;;;;;;;;;;5071927;28;20054;-67
2022/03/21 06:52:25;;;;;;;10.30;6.53;;;;;;;;;;5090735;28;20051;-67
2022/03/21 06:54:51;;;;;;;10.20;6.72;;;;;;;;;;5089949;28;20048;-67
2022/03/21 06:57:17;;;;;;;10.13;7.03;;;;;;;;;;5072475;28;20044;-67
2022/03/21 06:59:45;;;;;;;8.07;6.40;;;;;;;;;;5090758;28;20067;-67
2022/03/21 07:02:12;;;;;;;9.50;6.35;;;;;;;;;;5090921;28;20046;-67
2022/03/21 07:04:38;;;;;;;10.23;6.88;;;;;;;;;;5090241;28;20071;-67
2022/03/21 07:07:04;;;;;;;9.93;6.45;;;;;;;;;;5090643;28;20046;-67
2022/03/21 07:09:30;;;;;;;10.25;6.88;;;;;;;;;;5090828;28;20040;-67
2022/03/21 07:11:56;;;;;;;9.75;6.60;;;;;;;;;;5090430;28;20414;-67
2022/03/21 07:14:23;;;;;;;9.43;7.18;;;;;;;;;;5072384;28;20575;-68
2022/03/21 07:16:49;;;;;;;9.30;6.47;;;;;;;;;;5090253;28;20131;-68
2022/03/21 07:19:15;;;;;;;9.30;6.65;;;;;;;;;;5090213;28;20522;-68
2022/03/21 07:21:41;;;;;;;9.35;6.53;;;;;;;;;;5072743;28;20043;-67
2022/03/21 07:24:07;;;;;;;9.57;7.35;;;;;;;;;;5090832;28;20044;-68
2022/03/21 07:26:34;;;;;;;9.18;7.15;;;;;;;;;;5089969;28;20536;-68
2022/03/21 07:29:00;;;;;;;9.52;7.35;;;;;;;;;;5089743;28;20097;-68
2022/03/21 07:31:26;;;;;;;10.50;6.75;;;;;;;;;;5089652;28;20063;-68
2022/03/21 07:33:52;;;;;;;8.50;6.70;;;;;;;;;;5088262;28;20056;-68
2022/03/21 07:36:18;;;;;;;11.27;7.28;;;;;;;;;;5089788;28;20138;-68
2022/03/21 07:38:44;;;;;;;9.68;7.30;;;;;;;;;;5089405;28;20044;-68
2022/03/21 07:41:10;;;;;;;9.80;7.32;;;;;;;;;;5054783;28;20493;-69
2022/03/21 07:43:37;;;;;;;10.55;7.68;;;;;;;;;;5089690;28;20063;-69
2022/03/21 07:48:48;;;;;;;11.75;7.05;;;;;;;;;;5089398;28;20116;-69
2022/03/21 07:51:14;;;;;;;8.70;6.78;;;;;;;;;;5088286;28;20059;-69
2022/03/21 07:53:41;;;;;;;8.70;6.95;;;;;;;;;;5089129;28;20043;-69
2022/03/21 07:56:09;;;;;;;13.98;6.88;;;;;;;;;;5088975;28;20505;-68
2022/03/21 07:58:35;;;;;;;13.45;7.35;;;;;;;;;;5089027;28;20539;-69
2022/03/21 08:01:02;;;;;;;13.85;6.93;;;;;;;;;;5089135;28;20131;-71
2022/03/21 08:03:28;;;;;;;11.32;7.88;;;;;;;;;;5071308;28;20043;-71
2022/03/21 08:05:57;;;;;;;11.88;6.40;;;;;;;;;;5088861;28;20052;-70
2022/03/21 08:08:23;;;;;;;7.77;5.67;;;;;;;;;;5071105;28;20056;-69
2022/03/21 08:10:49;;;;;;;7.40;5.10;;;;;;;;;;5089457;28;20169;-69
2022/03/21 08:13:17;;;;;;;5.68;4.55;;;;;;;;;;5089014;28;20118;-68
2022/03/21 08:15:46;;;;;;;8.07;4.50;;;;;;;;;;5102220;28;20050;-70
2022/03/21 08:18:13;;;;;;;7.28;4.65;;;;;;;;;;5109375;28;20433;-70
2022/03/21 08:20:39;;;;;;;6.55;4.13;;;;;;;;;;5109077;28;20050;-69
2022/03/21 08:23:11;;;;;;;8.13;4.72;;;;;;;;;;5099384;28;20044;-68
2022/03/21 08:25:37;;;;;;;6.55;4.82;;;;;;;;;;5088623;28;20052;-69
2022/03/21 08:28:05;;;;;;;6.63;4.82;;;;;;;;;;5070040;28;20069;-69
2022/03/21 08:30:33;;;;;;;6.60;4.22;;;;;;;;;;5103425;28;20046;-71
2022/03/21 08:32:59;;;;;;;7.82;4.90;;;;;;;;;;5099738;28;20048;-71
2022/03/21 08:35:26;;;;;;;6.07;4.45;;;;;;;;;;5070899;28;20047;-70
2022/03/21 08:37:52;;;;;;;6.10;4.32;;;;;;;;;;5070727;28;20062;-72
2022/03/21 08:40:18;;;;;;;6.70;4.15;;;;;;;;;;5070862;28;20051;-71
2022/03/21 08:42:45;;;;;;;6.82;4.35;;;;;;;;;;5089090;28;20113;-70
2022/03/21 08:45:12;;;;;;;7.53;4.35;;;;;;;;;;5089464;28;20079;-70
2022/03/21 08:47:39;;;;;;;5.82;4.10;;;;;;;;;;5054519;28;20052;-70
2022/03/21 08:50:06;;;;;;;6.80;4.50;;;;;;;;;;5088900;28;20040;-70
2022/03/21 08:52:32;;;;;;;6.10;4.03;;;;;;;;;;5093098;28;20051;-73
2022/03/21 08:54:58;;;;;;;6.63;4.35;;;;;;;;;;5089912;28;20418;-69
2022/03/21 08:57:24;;;;;;;5.95;4.50;;;;;;;;;;5088642;28;20052;-70
2022/03/21 08:59:52;;;;;;;5.03;3.70;;;;;;;;;;5087806;28;20048;-69
2022/03/21 09:02:18;;;;;;;5.60;4.00;;;;;;;;;;5063306;28;20518;-69
2022/03/21 09:04:45;;;;;;;5.55;4.15;;;;;;;;;;5087759;28;20040;-69
2022/03/21 09:07:13;;;;;;;6.28;4.10;;;;;;;;;;5071114;28;20090;-70
2022/03/21 09:09:39;;;;;;;6.18;4.30;;;;;;;;;;5088323;28;20386;-70
2022/03/21 09:12:05;;;;;;;5.70;3.97;;;;;;;;;;5054932;28;20055;-71
2022/03/21 09:14:31;;;;;;;6.68;4.30;;;;;;;;;;5049255;28;20090;-71
2022/03/21 09:16:57;;;;;;;5.78;4.00;;;;;;;;;;5032827;28;20138;-70
2022/03/21 09:19:24;;;;;;;6.75;3.92;;;;;;;;;;5071880;28;20508;-70
2022/03/21 09:21:50;;;;;;;6.55;4.20;;;;;;;;;;5069521;28;20040;-70
2022/03/21 09:24:16;;;;;;;7.28;4.60;;;;;;;;;;5086293;28;20047;-68
2022/03/21 09:26:42;;;;;;;6.80;4.30;;;;;;;;;;5086455;28;20048;-69
2022/03/21 09:29:09;;;;;;;7.30;4.78;;;;;;;;;;5105464;28;20043;-69
2022/03/21 09:31:38;;;;;;;7.75;4.50;;;;;;;;;;5107139;28;20050;-70
2022/03/21 09:34:05;;;;;;;6.60;4.10;;;;;;;;;;5082783;28;20048;-70
2022/03/21 09:36:31;;;;;;;6.72;4.20;;;;;;;;;;5087906;28;20056;-70
2022/03/21 09:38:57;;;;;;;7.82;4.60;;;;;;;;;;5069749;28;20714;-70
2022/03/21 09:41:25;;;;;;;7.32;4.60;;;;;;;;;;5087866;28;20376;-69
2022/03/21 09:44:00;;;;;;;6.60;4.00;;;;;;;;;;5069700;28;20044;-70
2022/03/21 09:46:26;;;;;;;6.03;4.30;;;;;;;;;;5088170;28;20048;-70
2022/03/21 09:48:53;;;;;;;7.20;4.47;;;;;;;;;;5108340;28;20044;-70
2022/03/21 09:51:28;;;;;;;6.47;4.10;;;;;;;;;;5112507;28;20123;-70
2022/03/21 09:53:55;;;;;;;6.95;4.47;;;;;;;;;;5111697;28;20039;-69
2022/03/21 09:56:22;;;;;;;6.20;4.38;;;;;;;;;;5112230;28;20039;-70
2022/03/21 09:58:48;;;;;;;6.28;4.10;;;;;;;;;;5112045;28;20056;-69
2022/03/21 10:01:15;;;;;;;6.50;4.13;;;;;;;;;;5094150;28;20139;-70
2022/03/21 10:03:42;;;;;;;6.53;4.53;;;;;;;;;;5092771;28;20040;-69
2022/03/21 10:06:27;;;;;;;8.35;4.55;;;;;;;;;;5111967;28;20363;-69
2022/03/21 10:09:26;;;;;;;5.55;4.32;;;;;;;;;;5104424;28;20040;-70
2022/03/21 10:11:56;;;;;;;6.43;4.53;;;;;;;;;;5034494;28;20427;-70
2022/03/21 10:14:25;;;;;;;6.82;4.70;;;;;;;;;;5091744;28;20124;-69
2022/03/21 10:16:52;;;;;;;8.10;5.35;;;;;;;;;;5074390;28;20118;-68
2022/03/21 10:19:18;;;;;;;6.50;4.68;;;;;;;;;;5109681;28;20050;-70
2022/03/21 10:21:59;;;;;;;7.22;4.68;;;;;;;;;;5111443;28;20059;-69
2022/03/21 10:24:25;;;;;;;8.30;4.70;;;;;;;;;;5101181;28;20402;-69
2022/03/21 10:26:51;;;;;;;6.70;4.50;;;;;;;;;;5090940;28;20113;-69
2022/03/21 10:29:17;;;;;;;6.35;4.57;;;;;;;;;;5090844;28;20047;-72
2022/03/21 10:31:44;;;;;;;6.47;4.30;;;;;;;;;;5091587;28;20210;-70
2022/03/21 10:34:11;;;;;;;8.15;4.75;;;;;;;;;;5090335;28;20064;-69
2022/03/21 10:36:56;;;;;;;6.75;4.43;;;;;;;;;;5073258;28;20044;-69
2022/03/21 10:39:22;;;;;;;7.72;4.70;;;;;;;;;;5090868;28;20048;-70
2022/03/21 10:41:54;;;;;;;6.95;4.65;;;;;;;;;;5090667;28;20083;-69
2022/03/21 10:44:20;;;;;;;7.22;4.68;;;;;;;;;;5090159;28;20486;-68
2022/03/21 10:46:51;;;;;;;8.82;5.00;;;;;;;;;;5093618;28;20039;-68
2022/03/21 10:49:25;;;;;;;5.70;4.22;;;;;;;;;;5080174;28;20054;-68
2022/03/21 10:51:54;;;;;;;6.57;4.53;;;;;;;;;;5110551;28;20553;-68
2022/03/21 10:54:38;;;;;;;5.63;4.30;;;;;;;;;;5108394;28;20047;-69
2022/03/21 10:57:05;;;;;;;6.30;4.75;;;;;;;;;;5086792;28;20048;-68
2022/03/21 10:59:32;;;;;;;7.80;5.40;;;;;;;;;;5089946;28;20414;-68
2022/03/21 11:02:14;;;;;;;7.50;4.70;;;;;;;;;;5079429;28;20051;-69
2022/03/21 11:04:45;;;;;;;7.05;4.53;;;;;;;;;;5069699;28;20065;-69
2022/03/21 11:07:13;;;;;;;8.30;4.63;;;;;;;;;;5069198;28;20044;-69
2022/03/21 11:09:42;;;;;;;7.07;4.63;;;;;;;;;;5068374;28;20040;-69
2022/03/21 11:12:09;;;;;;;7.85;4.60;;;;;;;;;;5070490;28;20461;-69
2022/03/21 11:14:39;;;;;;;7.13;4.50;;;;;;;;;;5088892;28;20127;-69
2022/03/21 11:17:05;;;;;;;6.22;4.00;;;;;;;;;;5071583;28;20077;-69
2022/03/21 11:19:32;;;;;;;9.18;5.10;;;;;;;;;;5089012;28;20067;-69
2022/03/21 11:22:00;;;;;;;6.25;4.63;;;;;;;;;;5071679;28;20113;-68
2022/03/21 11:24:30;;;;;;;6.93;4.90;;;;;;;;;;5089834;28;20205;-70
2022/03/21 11:26:56;;;;;;;5.93;4.32;;;;;;;;;;5089138;28;20402;-68
2022/03/21 11:29:28;;;;;;;8.27;5.00;;;;;;;;;;5089223;28;20048;-68
2022/03/21 11:32:06;;;;;;;7.88;4.35;;;;;;;;;;5089657;28;20371;-68
2022/03/21 11:34:40;;;;;;;7.03;4.40;;;;;;;;;;5089178;28;20085;-68
2022/03/21 11:37:06;;;;;;;5.85;4.43;;;;;;;;;;5089569;28;20072;-69
2022/03/21 11:39:33;;;;;;;6.85;5.10;;;;;;;;;;5089630;28;20043;-70
2022/03/21 11:42:01;;;;;;;7.32;4.80;;;;;;;;;;5071259;28;20048;-68
2022/03/21 11:44:27;;;;;;;6.82;4.78;;;;;;;;;;5089043;28;20039;-68
2022/03/21 11:46:53;;;;;;;6.55;4.65;;;;;;;;;;5054636;28;20193;-70
2022/03/21 11:49:19;;;;;;;7.38;5.30;;;;;;;;;;5088099;28;20070;-69
2022/03/21 11:51:53;;;;;;;7.68;4.93;;;;;;;;;;5067258;28;20044;-69
2022/03/21 11:54:33;;;;;;;7.57;5.55;;;;;;;;;;5086715;28;20066;-68
2022/03/21 11:56:59;;;;;;;;;;;;;;;;;;5069620;28;20115;-66
2022/03/21 11:59:38;;;;;;;7.70;4.57;;;;;;;;;;5087050;28;20003;-68
2022/03/21 12:02:04;;;;;;;;;;;;;;;;;;5088116;28;20052;-67
2022/03/21 12:04:32;;;;;;;7.90;5.32;;;;;;;;;;5087475;28;19967;-68
2022/03/21 12:06:58;;;;;;;7.90;4.95;;;;;;;;;;5088232;28;20070;-68
2022/03/21 12:09:24;;;;;;;8.05;5.50;;;;;;;;;;5087828;28;20149;-67
2022/03/21 12:11:51;;;;;;;9.00;5.20;;;;;;;;;;5085871;28;20044;-68
2022/03/21 12:14:19;;;;;;;10.82;5.43;;;;;;;;;;5087862;28;20604;-67
2022/03/21 12:16:46;;;;;;;8.65;5.00;;;;;;;;;;5089047;28;20106;-66
2022/03/21 12:19:12;;;;;;;8.85;5.32;;;;;;;;;;5088773;28;20490;-67
2022/03/21 12:21:38;;;;;;;10.90;5.15;;;;;;;;;;5088773;28;20048;-67
2022/03/21 12:24:15;;;;;;;10.95;5.07;;;;;;;;;;5054300;28;20054;-67
2022/03/21 12:26:51;;;;;;;9.02;5.35;;;;;;;;;;5070410;28;20051;-67
2022/03/21 12:29:33;;;;;;;9.93;5.10;;;;;;;;;;5089050;28;20098;-67
2022/03/21 12:32:18;;;;;;;7.65;5.00;;;;;;;;;;5070506;28;20508;-67
2022/03/21 12:34:51;;;;;;;7.35;4.13;;;;;;;;;;5139742;27;1271279;-67
2022/03/21 12:37:41;;;;;;;9.02;4.90;;;;;;;;;;5167511;27;20058;-67
2022/03/21 12:40:14;;;;;;;8.98;5.00;;;;;;;;;;5167407;27;20042;-67
2022/03/21 12:42:44;;;;;;;7.47;4.47;;;;;;;;;;5148769;27;20061;-67
2022/03/21 12:45:16;;;;;;;8.30;5.15;;;;;;;;;;5167796;27;20516;-67
2022/03/21 12:47:42;;;;;;;6.93;4.47;;;;;;;;;;5128838;27;20042;-67
2022/03/21 12:50:09;;;;;;;8.20;4.80;;;;;;;;;;5166523;27;20037;-66
2022/03/21 12:52:35;;;;;;;6.43;4.38;;;;;;;;;;5167204;27;20050;-66
2022/03/21 12:55:03;;;;;;;10.23;4.90;;;;;;;;;;5140321;27;20091;-67
2022/03/21 12:57:31;;;;;;;8.70;4.88;;;;;;;;;;5146135;27;20043;-67
2022/03/21 13:00:16;;;;;;;8.05;4.80;;;;;;;;;;5146533;27;20152;-67
2022/03/21 13:02:42;;;;;;;9.18;4.22;;;;;;;;;;5129069;27;20042;-66
2022/03/21 13:10:43;;;;;;;9.38;4.03;;;;;;;;;;5166637;27;20067;-66
2022/03/21 13:13:09;;;;;;;8.35;4.55;;;;;;;;;;5167000;27;20537;-66
2022/03/21 13:15:35;;;;;;;6.15;3.83;;;;;;;;;;5167028;27;20484;-66
2022/03/21 13:18:03;;;;;;;6.63;4.57;;;;;;;;;;5166325;27;20038;-66
2022/03/21 13:20:33;;;;;;;10.18;4.47;;;;;;;;;;5166669;27;20054;-66
2022/03/21 13:23:01;;;;;;;7.03;4.60;;;;;;;;;;5166030;27;20047;-66
2022/03/21 13:25:27;;;;;;;6.80;5.00;;;;;;;;;;5166851;27;20049;-66
2022/03/21 13:28:05;;;;;;;7.72;4.65;;;;;;;;;;5147475;27;20545;-66
2022/03/21 13:30:31;;;;;;;6.10;3.67;;;;;;;;;;5145719;27;20042;-66
2022/03/21 13:32:57;;;;;;;6.28;3.75;;;;;;;;;;5144963;27;20054;-66
2022/03/21 13:35:24;;;;;;;7.55;4.22;;;;;;;;;;5127257;27;20097;-66
2022/03/21 13:38:00;;;;;;;6.40;3.92;;;;;;;;;;5145486;27;20035;-66
2022/03/21 13:40:27;;;;;;;7.85;4.15;;;;;;;;;;5145000;27;20046;-66
2022/03/21 13:42:53;;;;;;;6.88;4.40;;;;;;;;;;5145694;27;20504;-66
2022/03/21 13:45:20;;;;;;;6.55;4.47;;;;;;;;;;5136684;27;20039;-66
2022/03/21 13:47:53;;;;;;;8.73;4.25;;;;;;;;;;5131016;27;20047;-65
2022/03/21 13:50:29;;;;;;;6.85;4.35;;;;;;;;;;5131391;27;20039;-66
2022/03/21 13:52:58;;;;;;;7.18;3.97;;;;;;;;;;5131497;27;20141;-69
2022/03/21 13:55:30;;;;;;;8.50;4.20;;;;;;;;;;5130915;27;20050;-68
2022/03/21 13:58:00;;;;;;;13.90;4.72;;;;;;;;;;5131668;27;20440;-68
2022/03/21 14:00:26;;;;;;;5.90;3.85;;;;;;;;;;5112920;27;20043;-68
2022/03/21 14:02:52;;;;;;;6.30;3.80;;;;;;;;;;5130745;27;20104;-68
2022/03/21 14:05:20;;;;;;;7.78;3.80;;;;;;;;;;5131471;27;20036;-68
2022/03/21 14:07:48;;;;;;;9.90;3.90;;;;;;;;;;5131602;27;20093;-68
2022/03/21 14:10:24;;;;;;;6.40;3.72;;;;;;;;;;5113007;27;20051;-68
2022/03/21 14:12:54;;;;;;;6.63;4.47;;;;;;;;;;5130918;27;20038;-68
2022/03/21 14:15:21;;;;;;;7.55;4.47;;;;;;;;;;5131259;27;20039;-68
2022/03/21 14:17:47;;;;;;;5.60;3.72;;;;;;;;;;5129400;27;20473;-68
2022/03/21 14:20:17;;;;;;;6.57;4.07;;;;;;;;;;5112074;27;20130;-68
2022/03/21 14:22:43;;;;;;;5.90;4.10;;;;;;;;;;5130896;27;20108;-68
2022/03/21 14:27:54;;;;;;;5.90;3.67;;;;;;;;;;5130358;27;20077;-68
2022/03/21 14:30:20;;;;;;;6.85;3.95;;;;;;;;;;5131077;27;20641;-67
2022/03/21 14:32:47;;;;;;;7.50;3.90;;;;;;;;;;5112343;27;20047;-67
2022/03/21 14:35:13;;;;;;;8.40;4.18;;;;;;;;;;5130067;27;20091;-68
2022/03/21 14:37:39;;;;;;;10.80;4.15;;;;;;;;;;5130897;27;20047;-68
2022/03/21 14:40:05;;;;;;;8.07;4.22;;;;;;;;;;5130466;27;20043;-69
2022/03/21 14:42:32;;;;;;;7.13;4.22;;;;;;;;;;5130438;27;20039;-69
2022/03/21 14:44:58;;;;;;;6.40;4.15;;;;;;;;;;5130290;27;20412;-69
2022/03/21 14:47:24;;;;;;;8.98;3.85;;;;;;;;;;5111078;27;20688;-70
2022/03/21 14:49:50;;;;;;;6.93;4.07;;;;;;;;;;5129600;27;20223;-69
2022/03/21 14:52:16;;;;;;;6.20;3.53;;;;;;;;;;5130628;27;20151;-69
2022/03/21 14:54:42;;;;;;;9.68;4.43;;;;;;;;;;5130262;27;20035;-69
2022/03/21 14:57:08;;;;;;;5.97;3.75;;;;;;;;;;5129709;27;20046;-69
2022/03/21 14:59:34;;;;;;;8.20;4.72;;;;;;;;;;5111954;27;20493;-70
2022/03/21 15:02:00;;;;;;;7.70;4.10;;;;;;;;;;5130910;27;20127;-69
2022/03/21 15:04:27;;;;;;;7.53;4.03;;;;;;;;;;5130961;27;20039;-69
2022/03/21 15:06:53;;;;;;;6.90;4.18;;;;;;;;;;5130772;27;20039;-70